Time;durP1;ratioP1;P1;durP2;ratioP2;P2;SDS_P1;SDS_P2;PMS_P1;PMS_P2;Temp;Humidity;BMP_temperature;BMP_pressure;BME280_temperature;BME280_humidity;BME280_pressure;Samples;Min_cycle;Max_cycle;Signal;HPM_P1;HPM_P2
2022/12/30 00:00:43;;;;;;;0.10;0.10;;;6.30;99.90;;;;;;5071126;28;20249;-81
2022/12/30 00:03:09;;;;;;;0.10;0.10;;;6.40;99.90;;;;;;5071398;28;20217;-81
2022/12/30 00:05:34;;;;;;;0.10;0.10;;;6.40;99.90;;;;;;5073521;28;20213;-82
2022/12/30 00:08:00;;;;;;;0.10;0.10;;;6.50;99.90;;;;;;5072581;28;20714;-81
2022/12/30 00:10:26;;;;;;;0.10;0.10;;;6.50;99.90;;;;;;5053970;28;20553;-81
2022/12/30 00:35:13;;;;;;;0.10;0.10;;;6.50;99.90;;;;;;5058507;28;20215;-81
2022/12/30 00:37:38;;;;;;;0.10;0.10;;;6.20;99.90;;;;;;5058573;28;21134;-81
2022/12/30 00:40:05;;;;;;;0.10;0.10;;;6.10;99.90;;;;;;5073219;28;20173;-81
2022/12/30 00:45:14;;;;;;;0.10;0.10;;;6.10;99.90;;;;;;5058557;28;20197;-81
2022/12/30 00:47:40;;;;;;;0.10;0.10;;;5.90;99.90;;;;;;5072668;28;20693;-82
2022/12/30 00:58:19;;;;;;;0.10;0.10;;;5.30;99.90;;;;;;5056956;28;20266;-81
2022/12/30 01:00:44;;;;;;;0.10;0.10;;;5.30;99.90;;;;;;5071638;28;20210;-82
2022/12/30 01:03:10;;;;;;;0.00;0.00;;;5.30;99.90;;;;;;5071961;28;20246;-80
2022/12/30 01:05:39;;;;;;;0.10;0.10;;;5.40;99.90;;;;;;5071173;28;20194;-80
2022/12/30 01:08:05;;;;;;;0.10;0.10;;;5.60;99.90;;;;;;5066021;28;20221;-81
2022/12/30 01:10:30;;;;;;;0.03;0.03;;;5.60;99.90;;;;;;5057054;28;20280;-82
2022/12/30 01:12:56;;;;;;;0.10;0.10;;;5.70;99.90;;;;;;5052894;28;20290;-81
2022/12/30 01:15:22;;;;;;;0.10;0.10;;;5.80;99.90;;;;;;5070590;28;20217;-81
2022/12/30 01:17:47;;;;;;;0.10;0.10;;;5.80;99.90;;;;;;5052567;28;20748;-81
2022/12/30 01:20:13;;;;;;;0.10;0.10;;;5.90;99.90;;;;;;5055856;28;20216;-82
2022/12/30 01:22:38;;;;;;;0.10;0.10;;;5.90;99.90;;;;;;5071564;28;20211;-80
2022/12/30 01:25:04;;;;;;;0.03;0.03;;;5.90;99.90;;;;;;5070965;28;20798;-82
2022/12/30 01:27:32;;;;;;;0.10;0.10;;;5.90;99.90;;;;;;5071681;28;20174;-82
2022/12/30 01:29:59;;;;;;;0.00;0.00;;;5.90;99.90;;;;;;5070537;28;20225;-81
2022/12/30 01:32:27;;;;;;;0.10;0.10;;;6.00;99.90;;;;;;5055091;28;20212;-81
2022/12/30 01:34:54;;;;;;;0.10;0.10;;;6.00;99.90;;;;;;5071119;28;20209;-81
2022/12/30 01:37:20;;;;;;;0.10;0.10;;;6.00;99.90;;;;;;5054271;28;20205;-82
2022/12/30 01:39:46;;;;;;;0.10;0.10;;;5.90;99.90;;;;;;5054645;28;20632;-81
2022/12/30 01:42:23;;;;;;;0.10;0.10;;;5.90;99.90;;;;;;5071155;28;20202;-80
2022/12/30 01:44:48;;;;;;;0.10;0.10;;;5.70;99.90;;;;;;5070893;28;20230;-81
2022/12/30 01:47:29;;;;;;;0.10;0.10;;;5.50;99.90;;;;;;5070025;28;20210;-81
2022/12/30 01:50:09;;;;;;;0.00;0.00;;;5.50;99.90;;;;;;5072164;28;20315;-81
2022/12/30 01:52:45;;;;;;;0.10;0.10;;;5.50;99.90;;;;;;5055748;28;20210;-81
2022/12/30 01:55:23;;;;;;;0.10;0.10;;;5.50;99.90;;;;;;5070662;28;20274;-81
2022/12/30 01:57:51;;;;;;;0.10;0.10;;;5.40;99.90;;;;;;5055726;28;20205;-81
2022/12/30 02:00:18;;;;;;;0.10;0.10;;;5.20;99.90;;;;;;5051929;28;20243;-81
2022/12/30 02:02:43;;;;;;;0.00;0.00;;;5.20;99.90;;;;;;5070288;28;20215;-81
2022/12/30 02:05:10;;;;;;;0.10;0.10;;;5.30;99.90;;;;;;5070892;28;20202;-82
2022/12/30 02:07:44;;;;;;;0.00;0.00;;;5.30;99.90;;;;;;5051829;28;20181;-82
2022/12/30 02:10:11;;;;;;;0.00;0.00;;;5.30;99.90;;;;;;5069842;28;20205;-82
2022/12/30 02:12:36;;;;;;;0.10;0.10;;;5.40;99.90;;;;;;5071324;28;20296;-82
2022/12/30 02:15:03;;;;;;;0.10;0.10;;;5.40;99.90;;;;;;5054134;28;20286;-81
2022/12/30 02:17:44;;;;;;;0.00;0.00;;;5.40;99.90;;;;;;5070791;28;20188;-81
2022/12/30 02:20:32;;;;;;;0.10;0.10;;;5.40;99.90;;;;;;5070428;28;20538;-81
2022/12/30 02:22:57;;;;;;;0.10;0.10;;;5.30;99.90;;;;;;5053008;28;20190;-81
2022/12/30 02:25:41;;;;;;;0.10;0.10;;;5.40;99.90;;;;;;5054571;28;20181;-81
2022/12/30 02:28:40;;;;;;;0.00;0.00;;;5.50;99.90;;;;;;5054165;28;20181;-82
2022/12/30 02:31:20;;;;;;;0.07;0.07;;;5.60;99.90;;;;;;5071361;28;20321;-83
2022/12/30 02:34:08;;;;;;;0.10;0.10;;;5.60;99.90;;;;;;5070928;28;20193;-82
2022/12/30 02:36:55;;;;;;;0.10;0.10;;;5.60;99.90;;;;;;5070890;28;20229;-82
2022/12/30 02:39:48;;;;;;;0.10;0.10;;;5.60;99.90;;;;;;5054373;28;20704;-81
2022/12/30 02:45:24;;;;;;;0.10;0.10;;;5.20;99.90;;;;;;5057545;28;20176;-81
2022/12/30 02:47:56;;;;;;;0.10;0.10;;;5.00;99.90;;;;;;5055284;28;20186;-81
2022/12/30 02:53:15;;;;;;;0.10;0.10;;;4.60;99.90;;;;;;5054753;28;20594;-81
2022/12/30 02:55:41;;;;;;;0.10;0.10;;;4.60;99.90;;;;;;5069967;28;20208;-81
2022/12/30 02:58:07;;;;;;;0.10;0.10;;;4.60;99.90;;;;;;5053253;28;20206;-82
2022/12/30 03:03:59;;;;;;;0.10;0.10;;;4.60;99.90;;;;;;5056113;28;20690;-81
2022/12/30 03:06:31;;;;;;;0.10;0.10;;;4.70;99.90;;;;;;5041860;28;20204;-80
2022/12/30 03:09:20;;;;;;;0.10;0.10;;;4.60;99.90;;;;;;5069251;28;20193;-81
2022/12/30 03:11:57;;;;;;;0.10;0.10;;;4.70;99.90;;;;;;5069944;28;20214;-81
2022/12/30 03:14:31;;;;;;;0.07;0.07;;;4.70;99.90;;;;;;5053130;28;20181;-81
2022/12/30 03:17:01;;;;;;;0.00;0.00;;;4.80;99.90;;;;;;5069209;28;20178;-82
2022/12/30 03:19:32;;;;;;;0.03;0.03;;;4.80;99.90;;;;;;5067788;28;20181;-82
2022/12/30 03:21:59;;;;;;;0.10;0.10;;;4.80;99.90;;;;;;5053897;28;20200;-82
2022/12/30 03:27:17;;;;;;;0.10;0.10;;;4.90;99.90;;;;;;5061056;28;20183;-82
2022/12/30 03:29:59;;;;;;;2.03;2.00;;;4.90;99.90;;;;;;5074288;28;20181;-82
2022/12/30 03:32:26;;;;;;;0.10;0.10;;;5.00;99.90;;;;;;5058775;28;20682;-81
2022/12/30 03:34:52;;;;;;;0.10;0.10;;;5.00;99.90;;;;;;5057167;28;20278;-81
2022/12/30 03:37:39;;;;;;;0.10;0.10;;;5.10;99.90;;;;;;5057195;28;20186;-82
2022/12/30 03:40:17;;;;;;;0.10;0.10;;;5.10;99.90;;;;;;5074874;28;20181;-81
2022/12/30 03:42:44;;;;;;;0.10;0.10;;;5.10;99.90;;;;;;5058013;28;20663;-82
2022/12/30 03:45:11;;;;;;;0.10;0.10;;;5.10;99.90;;;;;;5058058;28;20190;-83
2022/12/30 03:47:36;;;;;;;0.10;0.10;;;4.90;99.90;;;;;;5075006;28;20192;-81
2022/12/30 03:50:02;;;;;;;0.10;0.10;;;4.40;99.90;;;;;;5071957;28;20182;-82
2022/12/30 03:52:28;;;;;;;0.10;0.10;;;4.10;99.90;;;;;;5058682;28;20208;-82
2022/12/30 03:54:53;;;;;;;0.10;0.10;;;3.90;99.90;;;;;;5056691;28;20201;-82
2022/12/30 03:57:19;;;;;;;0.10;0.10;;;3.80;99.90;;;;;;5057809;28;20423;-81
2022/12/30 03:59:44;;;;;;;0.10;0.10;;;3.80;99.90;;;;;;5056314;28;20904;-82
2022/12/30 04:02:10;;;;;;;0.10;0.10;;;3.90;99.90;;;;;;5073241;28;21131;-81
2022/12/30 04:04:35;;;;;;;0.10;0.10;;;4.00;99.90;;;;;;5072142;28;20186;-80
2022/12/30 04:07:02;;;;;;;0.10;0.10;;;4.10;99.90;;;;;;5059292;28;20246;-82
2022/12/30 04:09:27;;;;;;;0.10;0.10;;;4.20;99.90;;;;;;5074697;28;20186;-81
2022/12/30 04:11:53;;;;;;;0.10;0.10;;;4.40;99.90;;;;;;5072699;28;20702;-81
2022/12/30 04:14:18;;;;;;;0.00;0.00;;;4.50;99.90;;;;;;5057274;28;20276;-82
2022/12/30 04:16:44;;;;;;;0.10;0.10;;;4.40;99.90;;;;;;5076487;28;20298;-83
2022/12/30 04:19:10;;;;;;;0.10;0.10;;;4.30;99.90;;;;;;5057589;28;20269;-82
2022/12/30 04:21:36;;;;;;;0.10;0.10;;;4.20;99.90;;;;;;5058939;28;20197;-82
2022/12/30 04:24:02;;;;;;;0.00;0.00;;;4.20;99.90;;;;;;5072142;28;20192;-82
2022/12/30 04:26:27;;;;;;;0.10;0.10;;;4.10;99.90;;;;;;5056536;28;20202;-82
2022/12/30 04:28:53;;;;;;;0.00;0.00;;;4.00;99.90;;;;;;5058542;28;20224;-82
2022/12/30 04:31:19;;;;;;;0.10;0.10;;;4.00;99.90;;;;;;5057795;28;20540;-83
2022/12/30 04:33:52;;;;;;;0.10;0.10;;;4.10;99.90;;;;;;5075185;28;20220;-82
2022/12/30 04:36:18;;;;;;;0.10;0.10;;;4.20;99.90;;;;;;5056731;28;20268;-82
2022/12/30 04:38:44;;;;;;;0.10;0.10;;;4.40;99.90;;;;;;5073712;28;20177;-81
2022/12/30 04:41:10;;;;;;;0.00;0.00;;;4.60;99.90;;;;;;5058087;28;20209;-81
2022/12/30 04:43:36;;;;;;;0.10;0.10;;;4.60;99.90;;;;;;5059498;28;20201;-82
2022/12/30 04:46:01;;;;;;;0.10;0.10;;;4.70;99.90;;;;;;5071202;28;20189;-82
2022/12/30 04:48:27;;;;;;;0.10;0.10;;;4.80;99.90;;;;;;5071592;28;20308;-83
2022/12/30 04:50:52;;;;;;;0.00;0.00;;;5.00;99.90;;;;;;5071938;28;20297;-81
2022/12/30 04:53:18;;;;;;;0.10;0.10;;;5.10;99.90;;;;;;5071781;28;20185;-82
2022/12/30 04:55:43;;;;;;;0.10;0.10;;;5.30;99.90;;;;;;5071364;28;20603;-82
2022/12/30 04:58:09;;;;;;;0.07;0.07;;;5.40;99.90;;;;;;5056066;28;20654;-82
2022/12/30 05:00:35;;;;;;;0.10;0.10;;;5.60;99.90;;;;;;5071730;28;20238;-82
2022/12/30 05:03:00;;;;;;;0.10;0.10;;;5.70;99.90;;;;;;5056190;28;20190;-82
2022/12/30 05:05:26;;;;;;;0.10;0.10;;;5.80;99.90;;;;;;5057012;28;20188;-83
2022/12/30 05:07:51;;;;;;;0.10;0.10;;;5.80;99.90;;;;;;5072409;28;20681;-82
2022/12/30 05:10:17;;;;;;;0.10;0.10;;;5.40;99.90;;;;;;5058544;28;20190;-82
2022/12/30 05:12:42;;;;;;;0.10;0.10;;;5.30;99.90;;;;;;5056188;28;20181;-82
2022/12/30 05:15:08;;;;;;;0.10;0.10;;;5.10;99.90;;;;;;5055611;28;20220;-81
2022/12/30 05:17:34;;;;;;;0.10;0.10;;;5.00;99.90;;;;;;5071814;28;20300;-82
2022/12/30 05:20:00;;;;;;;0.00;0.00;;;5.00;99.90;;;;;;5071484;28;20197;-81
2022/12/30 05:22:25;;;;;;;0.07;0.07;;;4.90;99.90;;;;;;5055475;28;20225;-83
2022/12/30 05:27:35;;;;;;;0.10;0.10;;;5.10;99.90;;;;;;5058162;28;20187;-82
2022/12/30 05:30:00;;;;;;;0.10;0.10;;;5.20;99.90;;;;;;5058291;28;20188;-81
2022/12/30 05:32:26;;;;;;;0.10;0.10;;;5.10;99.90;;;;;;5056225;28;20201;-82
2022/12/30 05:34:51;;;;;;;0.10;0.10;;;5.10;99.90;;;;;;5071333;28;20208;-81
2022/12/30 05:37:17;;;;;;;0.10;0.10;;;4.90;99.90;;;;;;5072328;28;20181;-81
2022/12/30 05:39:43;;;;;;;0.00;0.00;;;4.80;99.90;;;;;;5073196;28;21305;-82
2022/12/30 05:42:08;;;;;;;0.00;0.00;;;4.60;99.90;;;;;;5052680;28;20303;-82
2022/12/30 05:44:34;;;;;;;0.00;0.00;;;4.60;99.90;;;;;;5054505;28;20200;-82
2022/12/30 05:46:59;;;;;;;0.10;0.10;;;4.60;99.90;;;;;;5057240;28;20549;-82
2022/12/30 05:49:25;;;;;;;0.10;0.10;;;4.70;99.90;;;;;;5068509;28;20182;-83
2022/12/30 05:51:50;;;;;;;0.10;0.10;;;4.90;99.90;;;;;;5071995;28;20683;-82
2022/12/30 05:54:16;;;;;;;0.10;0.10;;;4.90;99.90;;;;;;5071074;28;20271;-81
2022/12/30 05:56:41;;;;;;;0.10;0.10;;;4.90;99.90;;;;;;5057702;28;20216;-81
2022/12/30 05:59:10;;;;;;;0.10;0.10;;;5.00;99.90;;;;;;5070484;28;21763;-82
2022/12/30 06:01:36;;;;;;;0.00;0.00;;;5.10;99.90;;;;;;5053891;28;20342;-82
2022/12/30 06:04:03;;;;;;;0.00;0.00;;;5.20;99.90;;;;;;5055814;28;20181;-83
2022/12/30 06:06:28;;;;;;;0.10;0.10;;;5.10;99.90;;;;;;5068151;28;20186;-82
2022/12/30 06:08:54;;;;;;;0.07;0.07;;;5.20;99.90;;;;;;5056061;28;20188;-83
2022/12/30 06:11:19;;;;;;;0.10;0.10;;;5.40;99.90;;;;;;5055804;28;20201;-82
2022/12/30 06:13:45;;;;;;;0.10;0.10;;;5.60;99.90;;;;;;5067953;28;20205;-83
2022/12/30 06:16:11;;;;;;;0.10;0.10;;;5.50;99.90;;;;;;5067321;28;20210;-82
2022/12/30 06:18:36;;;;;;;0.10;0.10;;;5.50;99.90;;;;;;5053712;28;20243;-82
2022/12/30 06:21:02;;;;;;;0.10;0.10;;;5.40;99.90;;;;;;5055343;28;20209;-82
2022/12/30 06:23:28;;;;;;;0.10;0.10;;;5.50;99.90;;;;;;5055936;28;20190;-81
2022/12/30 06:25:58;;;;;;;0.10;0.10;;;5.40;99.90;;;;;;5069747;28;20286;-82
2022/12/30 06:28:25;;;;;;;0.10;0.10;;;5.40;99.90;;;;;;5055812;28;20204;-81
2022/12/30 06:30:51;;;;;;;0.10;0.10;;;5.40;99.90;;;;;;5056585;28;20235;-81
2022/12/30 06:33:17;;;;;;;0.10;0.10;;;5.40;99.90;;;;;;5053605;28;20204;-81
2022/12/30 06:35:42;;;;;;;0.10;0.10;;;5.50;99.90;;;;;;5071849;28;20222;-81
2022/12/30 06:38:08;;;;;;;0.10;0.10;;;5.70;99.90;;;;;;5066739;28;20564;-81
2022/12/30 06:40:34;;;;;;;0.10;0.10;;;5.60;99.90;;;;;;5052587;28;20193;-84
2022/12/30 06:42:59;;;;;;;0.10;0.10;;;5.60;99.90;;;;;;5068548;28;20185;-81
2022/12/30 06:45:25;;;;;;;0.10;0.10;;;5.70;99.90;;;;;;5068125;28;20185;-82
2022/12/30 06:47:51;;;;;;;0.10;0.10;;;6.00;99.90;;;;;;5055529;28;20197;-82
2022/12/30 06:50:16;;;;;;;0.10;0.10;;;6.10;99.90;;;;;;5053465;28;20215;-84
2022/12/30 06:52:42;;;;;;;0.10;0.10;;;6.10;99.90;;;;;;5051451;28;20212;-83
2022/12/30 06:55:08;;;;;;;0.10;0.10;;;6.00;99.90;;;;;;5063932;28;20211;-82
2022/12/30 06:57:33;;;;;;;0.10;0.10;;;6.00;99.90;;;;;;5037746;28;20260;-82
2022/12/30 06:59:59;;;;;;;0.10;0.10;;;6.10;99.90;;;;;;5052998;28;20284;-81
2022/12/30 07:02:25;;;;;;;0.10;0.10;;;6.10;99.90;;;;;;5069205;28;20218;-82
2022/12/30 07:04:51;;;;;;;0.10;0.10;;;6.00;99.90;;;;;;5052116;28;20196;-82
2022/12/30 07:07:17;;;;;;;0.03;0.03;;;6.00;99.90;;;;;;5069652;28;20185;-81
2022/12/30 07:09:42;;;;;;;0.10;0.10;;;5.90;99.90;;;;;;5053091;28;20934;-81
2022/12/30 07:12:08;;;;;;;0.10;0.10;;;5.90;99.90;;;;;;5069472;28;20221;-81
2022/12/30 07:14:33;;;;;;;0.10;0.10;;;5.80;99.90;;;;;;5066801;28;20921;-81
2022/12/30 07:16:59;;;;;;;0.10;0.10;;;5.80;99.90;;;;;;5067023;28;20187;-82
2022/12/30 07:19:25;;;;;;;0.10;0.10;;;5.80;99.90;;;;;;5051577;28;20182;-82
2022/12/30 07:21:51;;;;;;;0.10;0.10;;;5.90;99.90;;;;;;5069838;28;20916;-82
2022/12/30 07:24:16;;;;;;;0.10;0.10;;;6.00;99.90;;;;;;5052092;28;20280;-81
2022/12/30 07:26:42;;;;;;;0.10;0.10;;;6.00;99.90;;;;;;5071096;28;20197;-83
2022/12/30 07:29:07;;;;;;;0.10;0.10;;;6.00;99.90;;;;;;5073184;28;20239;-82
2022/12/30 07:31:33;;;;;;;0.10;0.10;;;6.10;99.90;;;;;;5068558;28;20743;-82
2022/12/30 07:33:58;;;;;;;0.10;0.10;;;6.10;99.90;;;;;;5054663;28;20812;-82
2022/12/30 07:36:24;;;;;;;0.00;0.00;;;6.20;99.90;;;;;;5067868;28;20210;-83
2022/12/30 07:38:50;;;;;;;0.10;0.10;;;6.30;99.90;;;;;;5069898;28;20203;-83
2022/12/30 07:41:15;;;;;;;0.10;0.10;;;6.20;99.90;;;;;;5069201;28;20216;-81
2022/12/30 07:43:41;;;;;;;0.10;0.10;;;6.30;99.90;;;;;;5072711;28;20197;-83
2022/12/30 07:46:09;;;;;;;0.10;0.10;;;6.30;99.90;;;;;;5069693;28;20195;-81
2022/12/30 07:48:35;;;;;;;0.10;0.10;;;6.50;99.90;;;;;;5067674;28;20275;-82
2022/12/30 07:51:09;;;;;;;0.10;0.10;;;6.50;99.90;;;;;;5054233;28;20255;-83
2022/12/30 07:53:35;;;;;;;0.10;0.10;;;6.70;99.90;;;;;;5051126;28;20187;-83
2022/12/30 07:56:05;;;;;;;0.10;0.10;;;6.80;99.90;;;;;;5068794;28;20319;-83
2022/12/30 07:58:31;;;;;;;0.10;0.10;;;6.80;99.90;;;;;;5047484;28;20218;-82
2022/12/30 08:00:56;;;;;;;0.10;0.10;;;6.80;99.90;;;;;;5047114;28;21020;-82
2022/12/30 08:03:22;;;;;;;0.10;0.10;;;6.90;99.90;;;;;;5066124;28;20410;-82
2022/12/30 08:05:47;;;;;;;0.10;0.10;;;7.00;99.90;;;;;;5070858;28;20190;-82
2022/12/30 08:08:13;;;;;;;0.10;0.10;;;7.00;99.90;;;;;;5054037;28;21523;-82
2022/12/30 08:10:38;;;;;;;0.10;0.10;;;7.10;99.90;;;;;;5069329;28;20217;-82
2022/12/30 08:13:04;;;;;;;0.10;0.10;;;7.30;99.90;;;;;;5058513;28;20276;-82
2022/12/30 08:15:29;;;;;;;0.10;0.10;;;7.20;99.90;;;;;;5073194;28;20231;-82
2022/12/30 08:17:56;;;;;;;0.10;0.10;;;7.30;99.90;;;;;;5059288;28;20645;-82
2022/12/30 08:20:21;;;;;;;0.10;0.10;;;7.30;99.90;;;;;;5072855;28;20277;-82
2022/12/30 08:22:47;;;;;;;0.10;0.10;;;7.20;99.90;;;;;;5072819;28;20181;-82
2022/12/30 08:25:13;;;;;;;0.10;0.10;;;7.10;99.90;;;;;;5071599;28;20259;-81
2022/12/30 08:27:38;;;;;;;0.10;0.10;;;7.00;99.90;;;;;;5074602;28;20195;-82
2022/12/30 08:30:04;;;;;;;0.10;0.10;;;7.10;99.90;;;;;;5073611;28;20181;-82
2022/12/30 08:32:29;;;;;;;0.10;0.10;;;7.00;99.90;;;;;;5073415;28;20679;-82
2022/12/30 08:34:55;;;;;;;0.10;0.10;;;7.10;99.90;;;;;;5074103;28;20200;-82
2022/12/30 08:37:20;;;;;;;0.10;0.10;;;7.20;99.90;;;;;;5070687;28;20198;-82
2022/12/30 08:39:46;;;;;;;0.10;0.10;;;7.10;99.90;;;;;;5072836;28;20220;-82
2022/12/30 08:42:11;;;;;;;0.07;0.07;;;7.10;99.90;;;;;;5056890;28;20210;-82
2022/12/30 08:44:37;;;;;;;0.10;0.10;;;7.30;99.90;;;;;;5056545;28;20182;-83
2022/12/30 08:47:02;;;;;;;0.10;0.10;;;7.20;99.90;;;;;;5072916;28;20712;-83
2022/12/30 08:49:28;;;;;;;0.10;0.10;;;7.30;99.90;;;;;;5057974;28;20248;-82
2022/12/30 08:51:54;;;;;;;0.10;0.10;;;7.10;99.90;;;;;;5054721;28;20747;-81
2022/12/30 08:54:19;;;;;;;0.10;0.10;;;7.40;99.90;;;;;;5055795;28;20185;-83
2022/12/30 08:56:48;;;;;;;0.10;0.10;;;7.50;99.90;;;;;;5073031;28;20250;-82
2022/12/30 08:59:14;;;;;;;0.00;0.00;;;7.60;99.90;;;;;;5072469;28;20274;-82
2022/12/30 09:01:40;;;;;;;0.10;0.10;;;7.80;99.90;;;;;;5055849;28;20305;-83
2022/12/30 09:04:08;;;;;;;0.10;0.10;;;7.90;99.90;;;;;;5074013;28;20206;-81
2022/12/30 09:06:36;;;;;;;0.10;0.10;;;8.10;99.90;;;;;;5073104;28;20605;-82
2022/12/30 09:09:03;;;;;;;0.00;0.00;;;8.20;99.90;;;;;;5058610;28;20242;-82
2022/12/30 09:11:32;;;;;;;0.10;0.10;;;8.30;99.90;;;;;;5071345;28;20207;-82
2022/12/30 09:13:59;;;;;;;0.10;0.10;;;8.40;99.90;;;;;;5052742;28;20641;-81
2022/12/30 09:16:25;;;;;;;0.00;0.00;;;8.50;99.90;;;;;;5069201;28;20298;-83
2022/12/30 09:18:51;;;;;;;0.10;0.10;;;8.50;99.90;;;;;;5069580;28;20628;-85
2022/12/30 09:21:17;;;;;;;0.10;0.10;;;8.70;99.90;;;;;;5062367;28;20293;-84
2022/12/30 09:23:43;;;;;;;0.10;0.10;;;8.80;99.90;;;;;;5070026;28;20270;-82
2022/12/30 09:26:13;;;;;;;0.10;0.10;;;9.00;99.90;;;;;;5054466;28;20218;-83
2022/12/30 09:28:39;;;;;;;0.10;0.10;;;9.20;99.90;;;;;;5069574;28;20448;-83
2022/12/30 09:31:06;;;;;;;0.10;0.10;;;9.30;99.90;;;;;;5066399;28;20237;-83
2022/12/30 09:33:32;;;;;;;0.10;0.10;;;9.40;99.90;;;;;;5069570;28;20226;-84
2022/12/30 09:35:58;;;;;;;0.10;0.10;;;9.30;99.90;;;;;;5073058;28;20209;-84
2022/12/30 09:38:24;;;;;;;0.10;0.10;;;9.30;99.90;;;;;;5055950;28;20185;-84
2022/12/30 09:40:59;;;;;;;0.10;0.10;;;9.30;99.90;;;;;;5050630;28;20211;-84
2022/12/30 09:44:03;;;;;;;0.10;0.10;;;9.30;99.90;;;;;;5056481;28;20187;-84
2022/12/30 09:47:01;;;;;;;0.10;0.10;;;9.40;99.90;;;;;;5057402;28;20254;-84
2022/12/30 09:49:39;;;;;;;0.10;0.10;;;9.50;99.90;;;;;;5060242;28;20181;-83
2022/12/30 09:52:23;;;;;;;0.10;0.10;;;9.60;99.90;;;;;;5073039;28;20248;-83
2022/12/30 09:54:58;;;;;;;0.10;0.10;;;9.70;99.90;;;;;;5054626;28;20251;-84
2022/12/30 09:57:30;;;;;;;0.10;0.10;;;9.80;99.90;;;;;;5054535;28;20254;-84
2022/12/30 10:00:00;;;;;;;0.10;0.10;;;9.80;99.90;;;;;;5055719;28;20218;-84
2022/12/30 10:02:37;;;;;;;0.10;0.10;;;9.90;99.90;;;;;;5070204;28;20203;-84
2022/12/30 10:05:03;;;;;;;0.10;0.10;;;9.90;99.90;;;;;;5054692;28;20196;-85
2022/12/30 10:08:01;;;;;;;0.10;0.10;;;10.00;99.90;;;;;;5073808;28;20196;-83
2022/12/30 10:11:26;;;;;;;0.10;0.10;;;10.10;99.90;;;;;;5054260;28;20250;-84
2022/12/30 10:14:18;;;;;;;0.10;0.10;;;10.20;99.90;;;;;;5017011;28;20197;-84
2022/12/30 10:17:16;;;;;;;0.10;0.10;;;10.40;99.90;;;;;;5017189;28;20214;-84
2022/12/30 10:20:03;;;;;;;0.10;0.10;;;10.30;99.90;;;;;;5067768;28;20659;-84
2022/12/30 10:22:43;;;;;;;0.10;0.10;;;10.30;99.90;;;;;;5056080;28;21168;-85
2022/12/30 10:25:14;;;;;;;0.03;0.03;;;10.30;99.90;;;;;;5056158;28;20191;-82
2022/12/30 10:27:47;;;;;;;0.07;0.07;;;10.20;99.90;;;;;;5071412;28;20522;-83
2022/12/30 10:30:26;;;;;;;0.10;0.10;;;9.40;99.90;;;;;;5071943;28;20189;-84
2022/12/30 10:32:59;;;;;;;0.10;0.10;;;9.50;99.90;;;;;;5055103;28;20192;-84
2022/12/30 10:35:29;;;;;;;0.10;0.10;;;9.40;99.90;;;;;;5057856;28;20212;-85
2022/12/30 10:38:01;;;;;;;0.10;0.10;;;9.30;99.90;;;;;;5051591;28;20184;-82
2022/12/30 10:40:41;;;;;;;0.10;0.10;;;8.80;99.90;;;;;;5058482;28;21237;-82
2022/12/30 10:43:09;;;;;;;0.10;0.10;;;8.90;99.90;;;;;;5055602;28;20404;-82
2022/12/30 10:46:00;;;;;;;0.10;0.10;;;9.00;99.90;;;;;;5070118;28;20187;-83
2022/12/30 10:48:32;;;;;;;0.10;0.10;;;9.10;99.90;;;;;;5056596;28;20531;-83
2022/12/30 10:50:58;;;;;;;0.10;0.10;;;9.20;99.90;;;;;;5058246;28;20220;-83
2022/12/30 10:53:26;;;;;;;0.10;0.10;;;9.20;99.90;;;;;;5073979;28;20188;-83
2022/12/30 10:56:03;;;;;;;0.10;0.10;;;9.30;99.90;;;;;;5058968;28;20277;-83
2022/12/30 10:58:34;;;;;;;0.10;0.10;;;9.30;99.90;;;;;;5060048;28;20202;-82
2022/12/30 11:01:01;;;;;;;0.10;0.10;;;9.20;99.90;;;;;;5069744;28;20215;-83
2022/12/30 11:03:30;;;;;;;0.07;0.07;;;9.10;99.90;;;;;;5070558;28;20190;-82
2022/12/30 11:05:56;;;;;;;0.00;0.00;;;9.20;99.90;;;;;;5070830;28;20188;-82
2022/12/30 11:08:28;;;;;;;0.10;0.10;;;9.20;99.90;;;;;;5072235;28;20714;-83
2022/12/30 11:10:59;;;;;;;0.10;0.10;;;9.20;99.90;;;;;;5070934;28;20211;-82
2022/12/30 11:16:10;;;;;;;0.10;0.10;;;9.40;99.90;;;;;;5051532;28;20220;-84
2022/12/30 11:18:35;;;;;;;0.10;0.10;;;9.50;99.90;;;;;;5054998;28;20177;-82
2022/12/30 11:21:01;;;;;;;0.10;0.10;;;9.50;99.90;;;;;;5062139;28;20199;-84
2022/12/30 11:23:34;;;;;;;0.10;0.10;;;9.50;99.90;;;;;;5049708;28;20185;-83
2022/12/30 11:26:03;;;;;;;0.10;0.10;;;9.50;99.90;;;;;;5053480;28;20185;-82
2022/12/30 11:28:34;;;;;;;0.10;0.10;;;9.50;99.90;;;;;;5051223;28;20282;-84
2022/12/30 11:31:10;;;;;;;0.10;0.10;;;9.40;99.90;;;;;;5054552;28;20227;-84
2022/12/30 11:33:37;;;;;;;0.10;0.10;;;9.40;99.90;;;;;;5053475;28;20197;-84
2022/12/30 11:36:36;;;;;;;0.10;0.10;;;9.40;99.90;;;;;;5057718;28;20272;-83
2022/12/30 11:39:04;;;;;;;0.10;0.10;;;9.40;99.90;;;;;;5049581;28;20199;-84
2022/12/30 11:41:32;;;;;;;0.10;0.10;;;9.30;99.90;;;;;;5057211;28;20199;-84
2022/12/30 11:44:00;;;;;;;0.10;0.10;;;9.30;99.90;;;;;;5054658;28;20225;-83
2022/12/30 11:46:43;;;;;;;0.10;0.10;;;9.30;99.90;;;;;;5055902;28;20259;-84
2022/12/30 11:49:15;;;;;;;0.10;0.10;;;9.30;99.90;;;;;;5058315;28;20211;-84
2022/12/30 11:51:45;;;;;;;0.10;0.10;;;9.30;99.90;;;;;;5072182;28;20762;-84
2022/12/30 11:54:11;;;;;;;0.07;0.07;;;9.30;99.90;;;;;;5059281;28;20213;-84
2022/12/30 11:56:54;;;;;;;0.10;0.10;;;9.30;99.90;;;;;;5073779;28;20686;-84
2022/12/30 11:59:43;;;;;;;0.10;0.10;;;9.30;99.90;;;;;;5073586;28;20633;-83
2022/12/30 12:02:32;;;;;;;0.10;0.10;;;9.20;99.90;;;;;;5055813;28;20572;-84
2022/12/30 12:04:58;;;;;;;0.10;0.10;;;9.10;99.90;;;;;;5074471;28;20187;-84
2022/12/30 12:07:33;;;;;;;0.10;0.10;;;9.10;99.90;;;;;;5056307;28;20262;-84
2022/12/30 12:10:14;;;;;;;0.10;0.10;;;9.10;99.90;;;;;;5067272;28;20203;-84
2022/12/30 12:12:48;;;;;;;0.20;0.20;;;9.10;99.90;;;;;;5054458;28;20303;-83
2022/12/30 12:15:41;;;;;;;0.10;0.10;;;9.10;99.90;;;;;;5069744;28;20546;-84
2022/12/30 12:18:17;;;;;;;0.10;0.10;;;9.20;99.90;;;;;;5055446;28;20602;-84
2022/12/30 12:20:58;;;;;;;0.10;0.10;;;9.30;99.90;;;;;;5050740;28;20661;-83
2022/12/30 12:24:01;;;;;;;0.10;0.10;;;9.20;99.90;;;;;;5070193;28;20644;-81
2022/12/30 12:27:10;;;;;;;0.10;0.10;;;9.20;99.90;;;;;;5056979;28;20261;-83
2022/12/30 12:29:36;;;;;;;0.10;0.10;;;9.30;99.90;;;;;;5046902;28;20588;-81
2022/12/30 12:32:18;;;;;;;0.10;0.10;;;9.20;99.90;;;;;;5071494;28;20216;-83
2022/12/30 12:34:53;;;;;;;0.10;0.10;;;9.30;99.90;;;;;;5072040;28;20196;-82
2022/12/30 12:37:31;;;;;;;0.10;0.10;;;9.30;99.90;;;;;;5054751;28;21169;-83
2022/12/30 12:40:35;;;;;;;0.10;0.10;;;9.30;99.90;;;;;;5073399;28;20226;-82
2022/12/30 12:43:07;;;;;;;0.10;0.10;;;9.20;99.90;;;;;;5054690;28;20276;-83
2022/12/30 12:45:33;;;;;;;0.10;0.10;;;9.30;99.90;;;;;;5070276;28;22238;-82
2022/12/30 12:48:05;;;;;;;0.10;0.10;;;9.30;99.90;;;;;;5063946;28;20540;-83
2022/12/30 12:50:39;;;;;;;0.10;0.10;;;9.30;99.90;;;;;;5071819;28;20314;-82
2022/12/30 12:53:24;;;;;;;0.10;0.10;;;9.30;99.90;;;;;;5057386;28;20258;-84
2022/12/30 12:56:00;;;;;;;0.10;0.10;;;9.30;99.90;;;;;;5073220;28;20230;-82
2022/12/30 12:58:54;;;;;;;0.10;0.10;;;9.40;99.90;;;;;;5068824;28;20194;-82
2022/12/30 13:01:37;;;;;;;0.10;0.10;;;9.50;99.90;;;;;;5054009;28;20688;-83
2022/12/30 13:04:06;;;;;;;0.10;0.10;;;9.50;99.90;;;;;;5056615;28;20177;-83
2022/12/30 13:07:08;;;;;;;0.10;0.10;;;9.50;99.90;;;;;;5072635;28;20204;-83
2022/12/30 13:09:43;;;;;;;0.10;0.10;;;9.50;99.90;;;;;;5050000;28;20196;-83
2022/12/30 13:12:12;;;;;;;0.10;0.10;;;9.60;99.90;;;;;;5058736;28;20219;-84
2022/12/30 13:14:41;;;;;;;0.10;0.10;;;9.60;99.90;;;;;;5070466;28;20185;-83
2022/12/30 13:17:26;;;;;;;0.10;0.10;;;9.60;99.90;;;;;;5070520;28;20195;-83
2022/12/30 13:19:56;;;;;;;0.10;0.10;;;9.60;99.90;;;;;;5072166;28;20598;-83
2022/12/30 13:22:26;;;;;;;0.10;0.10;;;9.50;99.90;;;;;;5068628;28;20216;-83
2022/12/30 13:24:53;;;;;;;0.10;0.10;;;9.50;99.90;;;;;;5057466;28;20247;-83
2022/12/30 13:27:27;;;;;;;0.10;0.10;;;9.50;99.90;;;;;;5069056;28;20245;-82
2022/12/30 13:29:55;;;;;;;0.10;0.10;;;9.50;99.90;;;;;;5069669;28;20199;-82
2022/12/30 13:32:50;;;;;;;0.10;0.10;;;9.50;99.90;;;;;;5055677;28;20212;-83
2022/12/30 13:35:40;;;;;;;0.10;0.10;;;9.40;99.90;;;;;;5053766;28;20200;-83
2022/12/30 13:38:35;;;;;;;0.10;0.10;;;9.40;99.90;;;;;;5057037;28;20197;-81
2022/12/30 13:41:25;;;;;;;0.10;0.10;;;9.40;99.90;;;;;;5055787;28;20207;-85
2022/12/30 13:43:57;;;;;;;0.10;0.10;;;9.40;99.90;;;;;;5052131;28;20192;-82
2022/12/30 13:46:25;;;;;;;0.10;0.10;;;9.40;99.90;;;;;;5070321;28;20200;-84
2022/12/30 13:49:11;;;;;;;0.10;0.10;;;9.40;99.90;;;;;;5069028;28;20185;-83
2022/12/30 13:51:37;;;;;;;0.10;0.10;;;9.40;99.90;;;;;;5053976;28;20215;-83
2022/12/30 13:54:16;;;;;;;0.10;0.10;;;9.50;99.90;;;;;;5054138;28;20192;-82
2022/12/30 13:56:44;;;;;;;0.10;0.10;;;9.50;99.90;;;;;;5051726;28;20204;-82
2022/12/30 13:59:27;;;;;;;0.10;0.10;;;9.50;99.90;;;;;;5069156;28;20201;-84
2022/12/30 14:02:18;;;;;;;0.10;0.10;;;9.50;99.90;;;;;;5067889;28;20208;-84
2022/12/30 14:04:47;;;;;;;0.00;0.00;;;9.40;99.90;;;;;;5069899;28;20456;-84
2022/12/30 14:07:51;;;;;;;0.10;0.10;;;9.40;99.90;;;;;;5052413;28;20279;-83